sensor_id;sensor_type;location;lat;lon;timestamp;P1;durP1;ratioP1;P2;durP2;ratioP2
18592;SDS011;9426;54.118;17.948;2022-12-29T00:04:18;17.77;;;8.43;;
18592;SDS011;9426;54.118;17.948;2022-12-29T00:09:44;10.17;;;6.97;;
18592;SDS011;9426;54.118;17.948;2022-12-29T00:15:08;12.77;;;7.37;;
18592;SDS011;9426;54.118;17.948;2022-12-29T00:20:49;8.40;;;5.73;;
18592;SDS011;9426;54.118;17.948;2022-12-29T00:26:36;14.10;;;5.17;;
18592;SDS011;9426;54.118;17.948;2022-12-29T00:32:17;10.07;;;6.70;;
18592;SDS011;9426;54.118;17.948;2022-12-29T00:38:00;7.40;;;5.67;;
18592;SDS011;9426;54.118;17.948;2022-12-29T00:43:46;7.10;;;4.87;;
18592;SDS011;9426;54.118;17.948;2022-12-29T00:49:28;11.23;;;6.00;;
18592;SDS011;9426;54.118;17.948;2022-12-29T00:54:53;8.20;;;5.40;;
18592;SDS011;9426;54.118;17.948;2022-12-29T01:00:18;7.20;;;5.20;;
18592;SDS011;9426;54.118;17.948;2022-12-29T01:05:42;7.90;;;5.40;;
18592;SDS011;9426;54.118;17.948;2022-12-29T01:11:08;6.20;;;4.83;;
18592;SDS011;9426;54.118;17.948;2022-12-29T01:16:35;6.17;;;4.33;;
18592;SDS011;9426;54.118;17.948;2022-12-29T01:21:58;7.23;;;5.37;;
18592;SDS011;9426;54.118;17.948;2022-12-29T01:27:22;5.90;;;4.40;;
18592;SDS011;9426;54.118;17.948;2022-12-29T01:32:47;7.83;;;4.90;;
18592;SDS011;9426;54.118;17.948;2022-12-29T01:38:12;6.07;;;3.67;;
18592;SDS011;9426;54.118;17.948;2022-12-29T01:43:40;7.20;;;4.53;;
18592;SDS011;9426;54.118;17.948;2022-12-29T01:49:10;9.27;;;5.60;;
18592;SDS011;9426;54.118;17.948;2022-12-29T01:54:38;9.13;;;4.90;;
18592;SDS011;9426;54.118;17.948;2022-12-29T02:00:06;4.17;;;3.47;;
18592;SDS011;9426;54.118;17.948;2022-12-29T02:05:40;6.30;;;4.73;;
18592;SDS011;9426;54.118;17.948;2022-12-29T02:11:08;8.77;;;5.90;;
18592;SDS011;9426;54.118;17.948;2022-12-29T02:16:36;5.50;;;4.40;;
18592;SDS011;9426;54.118;17.948;2022-12-29T02:22:11;5.43;;;4.30;;
18592;SDS011;9426;54.118;17.948;2022-12-29T02:27:52;7.23;;;5.20;;
18592;SDS011;9426;54.118;17.948;2022-12-29T02:33:29;5.80;;;4.10;;
18592;SDS011;9426;54.118;17.948;2022-12-29T02:39:03;6.30;;;4.80;;
18592;SDS011;9426;54.118;17.948;2022-12-29T02:44:31;6.80;;;5.20;;
18592;SDS011;9426;54.118;17.948;2022-12-29T02:50:05;9.43;;;6.20;;
18592;SDS011;9426;54.118;17.948;2022-12-29T02:55:34;8.93;;;6.03;;
18592;SDS011;9426;54.118;17.948;2022-12-29T03:01:04;12.93;;;7.63;;
18592;SDS011;9426;54.118;17.948;2022-12-29T03:06:46;9.23;;;6.47;;
18592;SDS011;9426;54.118;17.948;2022-12-29T03:12:22;11.73;;;7.23;;
18592;SDS011;9426;54.118;17.948;2022-12-29T03:18:10;12.00;;;7.30;;
18592;SDS011;9426;54.118;17.948;2022-12-29T03:23:40;13.00;;;7.37;;
18592;SDS011;9426;54.118;17.948;2022-12-29T03:29:09;14.70;;;9.50;;
18592;SDS011;9426;54.118;17.948;2022-12-29T03:34:34;12.93;;;8.57;;
18592;SDS011;9426;54.118;17.948;2022-12-29T03:40:01;18.87;;;11.00;;
18592;SDS011;9426;54.118;17.948;2022-12-29T03:45:26;20.70;;;12.77;;
18592;SDS011;9426;54.118;17.948;2022-12-29T03:50:51;23.23;;;12.43;;
18592;SDS011;9426;54.118;17.948;2022-12-29T03:56:17;21.53;;;14.53;;
18592;SDS011;9426;54.118;17.948;2022-12-29T04:01:42;24.60;;;10.80;;
18592;SDS011;9426;54.118;17.948;2022-12-29T04:07:06;20.10;;;14.07;;
18592;SDS011;9426;54.118;17.948;2022-12-29T04:12:32;24.23;;;13.53;;
18592;SDS011;9426;54.118;17.948;2022-12-29T04:17:56;22.77;;;14.13;;
18592;SDS011;9426;54.118;17.948;2022-12-29T04:23:20;26.30;;;14.27;;
18592;SDS011;9426;54.118;17.948;2022-12-29T04:28:46;22.93;;;13.80;;
18592;SDS011;9426;54.118;17.948;2022-12-29T04:34:36;24.20;;;12.87;;
18592;SDS011;9426;54.118;17.948;2022-12-29T04:39:59;20.27;;;12.30;;
18592;SDS011;9426;54.118;17.948;2022-12-29T04:45:25;21.10;;;12.47;;
18592;SDS011;9426;54.118;17.948;2022-12-29T04:50:57;17.83;;;11.80;;
18592;SDS011;9426;54.118;17.948;2022-12-29T04:56:25;18.30;;;11.37;;
18592;SDS011;9426;54.118;17.948;2022-12-29T05:01:51;22.13;;;12.23;;
18592;SDS011;9426;54.118;17.948;2022-12-29T05:07:15;22.23;;;11.50;;
18592;SDS011;9426;54.118;17.948;2022-12-29T05:12:39;20.80;;;12.20;;
18592;SDS011;9426;54.118;17.948;2022-12-29T05:18:04;19.93;;;11.87;;
18592;SDS011;9426;54.118;17.948;2022-12-29T05:23:28;19.57;;;11.73;;
18592;SDS011;9426;54.118;17.948;2022-12-29T05:28:59;19.10;;;10.37;;
18592;SDS011;9426;54.118;17.948;2022-12-29T05:34:24;21.83;;;11.40;;
18592;SDS011;9426;54.118;17.948;2022-12-29T05:39:48;15.23;;;9.97;;
18592;SDS011;9426;54.118;17.948;2022-12-29T05:45:12;13.83;;;8.60;;
18592;SDS011;9426;54.118;17.948;2022-12-29T05:51:01;12.83;;;8.70;;
18592;SDS011;9426;54.118;17.948;2022-12-29T05:56:39;14.60;;;8.23;;
18592;SDS011;9426;54.118;17.948;2022-12-29T06:02:04;15.10;;;9.30;;
18592;SDS011;9426;54.118;17.948;2022-12-29T06:07:29;15.17;;;7.63;;
18592;SDS011;9426;54.118;17.948;2022-12-29T06:12:53;15.40;;;8.43;;
18592;SDS011;9426;54.118;17.948;2022-12-29T06:18:17;12.53;;;8.03;;
18592;SDS011;9426;54.118;17.948;2022-12-29T06:23:42;11.30;;;7.73;;
18592;SDS011;9426;54.118;17.948;2022-12-29T06:29:07;20.00;;;10.40;;
18592;SDS011;9426;54.118;17.948;2022-12-29T06:34:31;17.63;;;10.27;;
18592;SDS011;9426;54.118;17.948;2022-12-29T06:39:57;16.00;;;9.83;;
18592;SDS011;9426;54.118;17.948;2022-12-29T06:45:29;15.40;;;9.37;;
18592;SDS011;9426;54.118;17.948;2022-12-29T06:50:53;21.43;;;12.00;;
18592;SDS011;9426;54.118;17.948;2022-12-29T06:56:18;17.57;;;10.37;;
18592;SDS011;9426;54.118;17.948;2022-12-29T07:01:41;14.37;;;8.73;;
18592;SDS011;9426;54.118;17.948;2022-12-29T07:07:06;15.50;;;7.80;;
18592;SDS011;9426;54.118;17.948;2022-12-29T07:12:31;19.13;;;9.07;;
18592;SDS011;9426;54.118;17.948;2022-12-29T07:17:55;13.07;;;8.63;;
18592;SDS011;9426;54.118;17.948;2022-12-29T07:23:18;15.57;;;8.50;;
18592;SDS011;9426;54.118;17.948;2022-12-29T07:28:43;18.90;;;9.50;;
18592;SDS011;9426;54.118;17.948;2022-12-29T07:34:07;17.57;;;8.97;;
18592;SDS011;9426;54.118;17.948;2022-12-29T07:39:31;16.30;;;9.77;;
18592;SDS011;9426;54.118;17.948;2022-12-29T07:44:57;13.57;;;9.20;;
18592;SDS011;9426;54.118;17.948;2022-12-29T07:50:49;14.40;;;9.03;;
18592;SDS011;9426;54.118;17.948;2022-12-29T07:56:14;17.90;;;8.90;;
18592;SDS011;9426;54.118;17.948;2022-12-29T08:01:39;17.80;;;10.07;;
18592;SDS011;9426;54.118;17.948;2022-12-29T08:07:03;14.37;;;9.57;;
18592;SDS011;9426;54.118;17.948;2022-12-29T08:12:26;13.17;;;8.10;;
18592;SDS011;9426;54.118;17.948;2022-12-29T08:17:52;17.10;;;9.33;;
18592;SDS011;9426;54.118;17.948;2022-12-29T08:23:16;14.60;;;9.17;;
18592;SDS011;9426;54.118;17.948;2022-12-29T08:28:39;15.17;;;9.53;;
18592;SDS011;9426;54.118;17.948;2022-12-29T08:34:04;20.30;;;10.67;;
18592;SDS011;9426;54.118;17.948;2022-12-29T08:39:28;17.13;;;8.97;;
18592;SDS011;9426;54.118;17.948;2022-12-29T08:44:52;12.97;;;7.90;;
18592;SDS011;9426;54.118;17.948;2022-12-29T08:50:17;12.90;;;8.57;;
18592;SDS011;9426;54.118;17.948;2022-12-29T08:55:40;13.07;;;7.40;;
18592;SDS011;9426;54.118;17.948;2022-12-29T09:01:04;15.07;;;7.73;;
18592;SDS011;9426;54.118;17.948;2022-12-29T09:06:29;15.13;;;7.73;;
18592;SDS011;9426;54.118;17.948;2022-12-29T09:11:56;10.43;;;6.43;;
18592;SDS011;9426;54.118;17.948;2022-12-29T09:17:20;10.13;;;5.70;;
18592;SDS011;9426;54.118;17.948;2022-12-29T09:23:22;11.40;;;5.97;;
18592;SDS011;9426;54.118;17.948;2022-12-29T09:28:46;9.73;;;5.63;;
18592;SDS011;9426;54.118;17.948;2022-12-29T09:34:09;9.40;;;5.67;;
18592;SDS011;9426;54.118;17.948;2022-12-29T09:39:35;10.77;;;5.10;;
18592;SDS011;9426;54.118;17.948;2022-12-29T09:45:08;12.90;;;6.00;;
18592;SDS011;9426;54.118;17.948;2022-12-29T09:50:37;16.10;;;6.00;;
18592;SDS011;9426;54.118;17.948;2022-12-29T09:56:03;7.50;;;4.87;;
18592;SDS011;9426;54.118;17.948;2022-12-29T10:01:29;14.27;;;5.30;;
18592;SDS011;9426;54.118;17.948;2022-12-29T10:06:56;9.27;;;4.30;;
18592;SDS011;9426;54.118;17.948;2022-12-29T10:12:52;8.33;;;4.60;;
18592;SDS011;9426;54.118;17.948;2022-12-29T10:18:32;8.37;;;4.70;;
18592;SDS011;9426;54.118;17.948;2022-12-29T10:24:19;8.40;;;4.03;;
18592;SDS011;9426;54.118;17.948;2022-12-29T10:29:48;8.60;;;5.30;;
18592;SDS011;9426;54.118;17.948;2022-12-29T10:35:16;7.13;;;4.23;;
18592;SDS011;9426;54.118;17.948;2022-12-29T10:40:42;9.10;;;4.97;;
18592;SDS011;9426;54.118;17.948;2022-12-29T10:46:11;6.87;;;4.13;;
18592;SDS011;9426;54.118;17.948;2022-12-29T10:51:40;9.50;;;4.20;;
18592;SDS011;9426;54.118;17.948;2022-12-29T10:57:08;11.07;;;4.80;;
18592;SDS011;9426;54.118;17.948;2022-12-29T11:02:43;7.50;;;4.77;;
18592;SDS011;9426;54.118;17.948;2022-12-29T11:08:22;7.37;;;4.50;;
18592;SDS011;9426;54.118;17.948;2022-12-29T11:13:49;12.30;;;4.50;;
18592;SDS011;9426;54.118;17.948;2022-12-29T11:19:22;12.70;;;4.83;;
18592;SDS011;9426;54.118;17.948;2022-12-29T11:24:54;11.93;;;4.83;;
18592;SDS011;9426;54.118;17.948;2022-12-29T11:30:28;8.00;;;4.47;;
18592;SDS011;9426;54.118;17.948;2022-12-29T11:35:56;9.73;;;4.80;;
18592;SDS011;9426;54.118;17.948;2022-12-29T11:41:25;8.53;;;4.87;;
18592;SDS011;9426;54.118;17.948;2022-12-29T11:46:50;9.73;;;4.70;;
18592;SDS011;9426;54.118;17.948;2022-12-29T11:52:17;9.73;;;4.63;;
18592;SDS011;9426;54.118;17.948;2022-12-29T11:57:45;6.77;;;4.77;;
18592;SDS011;9426;54.118;17.948;2022-12-29T12:03:10;7.93;;;4.47;;
18592;SDS011;9426;54.118;17.948;2022-12-29T12:08:41;10.00;;;5.00;;
18592;SDS011;9426;54.118;17.948;2022-12-29T12:14:11;13.23;;;5.37;;
18592;SDS011;9426;54.118;17.948;2022-12-29T12:20:14;12.63;;;4.67;;
18592;SDS011;9426;54.118;17.948;2022-12-29T12:25:45;7.80;;;4.80;;
18592;SDS011;9426;54.118;17.948;2022-12-29T12:31:18;10.60;;;5.07;;
18592;SDS011;9426;54.118;17.948;2022-12-29T12:36:54;8.80;;;5.00;;
18592;SDS011;9426;54.118;17.948;2022-12-29T12:42:49;10.30;;;4.80;;
18592;SDS011;9426;54.118;17.948;2022-12-29T12:48:38;8.60;;;4.60;;
18592;SDS011;9426;54.118;17.948;2022-12-29T12:54:18;7.83;;;4.77;;
18592;SDS011;9426;54.118;17.948;2022-12-29T12:59:56;10.13;;;5.43;;
18592;SDS011;9426;54.118;17.948;2022-12-29T13:05:29;8.57;;;3.90;;
18592;SDS011;9426;54.118;17.948;2022-12-29T13:11:21;10.23;;;5.10;;
18592;SDS011;9426;54.118;17.948;2022-12-29T13:16:53;8.97;;;5.13;;
18592;SDS011;9426;54.118;17.948;2022-12-29T13:22:26;9.77;;;4.77;;
18592;SDS011;9426;54.118;17.948;2022-12-29T13:27:56;12.37;;;5.73;;
18592;SDS011;9426;54.118;17.948;2022-12-29T13:33:29;10.40;;;5.97;;
18592;SDS011;9426;54.118;17.948;2022-12-29T13:39:02;9.40;;;5.37;;
18592;SDS011;9426;54.118;17.948;2022-12-29T13:44:28;13.37;;;6.40;;
18592;SDS011;9426;54.118;17.948;2022-12-29T13:49:58;10.20;;;6.60;;
18592;SDS011;9426;54.118;17.948;2022-12-29T13:55:25;8.77;;;5.30;;
18592;SDS011;9426;54.118;17.948;2022-12-29T14:00:53;9.33;;;5.27;;
18592;SDS011;9426;54.118;17.948;2022-12-29T14:06:23;7.77;;;4.90;;
18592;SDS011;9426;54.118;17.948;2022-12-29T14:11:47;10.17;;;5.47;;
18592;SDS011;9426;54.118;17.948;2022-12-29T14:17:11;9.10;;;5.50;;
18592;SDS011;9426;54.118;17.948;2022-12-29T14:22:41;10.43;;;5.57;;
18592;SDS011;9426;54.118;17.948;2022-12-29T14:28:22;10.90;;;5.43;;
18592;SDS011;9426;54.118;17.948;2022-12-29T14:39:40;10.57;;;5.03;;
18592;SDS011;9426;54.118;17.948;2022-12-29T14:45:06;10.60;;;5.73;;
18592;SDS011;9426;54.118;17.948;2022-12-29T14:50:42;10.60;;;5.50;;
18592;SDS011;9426;54.118;17.948;2022-12-29T14:56:09;10.83;;;5.47;;
18592;SDS011;9426;54.118;17.948;2022-12-29T15:01:37;14.10;;;7.47;;
18592;SDS011;9426;54.118;17.948;2022-12-29T15:07:03;13.40;;;6.07;;
18592;SDS011;9426;54.118;17.948;2022-12-29T15:12:35;10.73;;;5.20;;
18592;SDS011;9426;54.118;17.948;2022-12-29T15:18:11;11.60;;;4.97;;
18592;SDS011;9426;54.118;17.948;2022-12-29T15:23:45;13.17;;;5.90;;
18592;SDS011;9426;54.118;17.948;2022-12-29T15:34:58;11.73;;;6.03;;
18592;SDS011;9426;54.118;17.948;2022-12-29T15:40:23;11.83;;;5.27;;
18592;SDS011;9426;54.118;17.948;2022-12-29T15:45:49;10.17;;;4.93;;
18592;SDS011;9426;54.118;17.948;2022-12-29T15:51:17;8.73;;;5.00;;
18592;SDS011;9426;54.118;17.948;2022-12-29T15:56:43;7.10;;;4.40;;
18592;SDS011;9426;54.118;17.948;2022-12-29T16:02:09;11.10;;;5.23;;
18592;SDS011;9426;54.118;17.948;2022-12-29T16:07:33;11.40;;;4.70;;
18592;SDS011;9426;54.118;17.948;2022-12-29T16:13:01;12.53;;;5.33;;
18592;SDS011;9426;54.118;17.948;2022-12-29T16:18:30;12.20;;;5.10;;
18592;SDS011;9426;54.118;17.948;2022-12-29T16:23:58;11.20;;;5.17;;
18592;SDS011;9426;54.118;17.948;2022-12-29T16:29:24;11.63;;;5.30;;
18592;SDS011;9426;54.118;17.948;2022-12-29T16:34:49;12.27;;;5.90;;
18592;SDS011;9426;54.118;17.948;2022-12-29T16:40:25;12.13;;;6.77;;
18592;SDS011;9426;54.118;17.948;2022-12-29T16:51:42;9.80;;;4.90;;
18592;SDS011;9426;54.118;17.948;2022-12-29T16:57:05;9.17;;;4.20;;
18592;SDS011;9426;54.118;17.948;2022-12-29T17:02:29;8.80;;;4.73;;
18592;SDS011;9426;54.118;17.948;2022-12-29T17:07:56;19.27;;;9.20;;
18592;SDS011;9426;54.118;17.948;2022-12-29T17:13:23;5.77;;;3.03;;
18592;SDS011;9426;54.118;17.948;2022-12-29T17:18:47;5.97;;;2.33;;
18592;SDS011;9426;54.118;17.948;2022-12-29T17:24:13;7.73;;;3.20;;
18592;SDS011;9426;54.118;17.948;2022-12-29T17:29:39;5.67;;;3.17;;
18592;SDS011;9426;54.118;17.948;2022-12-29T17:35:04;17.70;;;9.40;;
18592;SDS011;9426;54.118;17.948;2022-12-29T17:40:30;4.67;;;3.03;;
18592;SDS011;9426;54.118;17.948;2022-12-29T17:45:55;11.23;;;6.00;;
18592;SDS011;9426;54.118;17.948;2022-12-29T17:51:20;9.73;;;4.40;;
18592;SDS011;9426;54.118;17.948;2022-12-29T17:56:46;7.93;;;4.10;;
18592;SDS011;9426;54.118;17.948;2022-12-29T18:02:22;6.63;;;3.77;;
18592;SDS011;9426;54.118;17.948;2022-12-29T18:07:48;6.37;;;3.27;;
18592;SDS011;9426;54.118;17.948;2022-12-29T18:13:18;6.60;;;3.53;;
18592;SDS011;9426;54.118;17.948;2022-12-29T18:18:42;7.07;;;3.77;;
18592;SDS011;9426;54.118;17.948;2022-12-29T18:24:08;14.93;;;4.33;;
18592;SDS011;9426;54.118;17.948;2022-12-29T18:29:36;12.10;;;4.10;;
18592;SDS011;9426;54.118;17.948;2022-12-29T18:35:00;7.57;;;4.70;;
18592;SDS011;9426;54.118;17.948;2022-12-29T18:40:24;5.03;;;2.80;;
18592;SDS011;9426;54.118;17.948;2022-12-29T18:45:49;9.20;;;3.57;;
18592;SDS011;9426;54.118;17.948;2022-12-29T18:51:13;5.40;;;3.20;;
18592;SDS011;9426;54.118;17.948;2022-12-29T18:56:39;5.67;;;2.80;;
18592;SDS011;9426;54.118;17.948;2022-12-29T19:02:04;6.80;;;2.97;;
18592;SDS011;9426;54.118;17.948;2022-12-29T19:07:28;8.50;;;2.90;;
18592;SDS011;9426;54.118;17.948;2022-12-29T19:12:52;14.27;;;5.97;;
18592;SDS011;9426;54.118;17.948;2022-12-29T19:18:18;8.93;;;3.70;;
18592;SDS011;9426;54.118;17.948;2022-12-29T19:24:04;5.43;;;2.70;;
18592;SDS011;9426;54.118;17.948;2022-12-29T19:29:28;9.40;;;4.57;;
18592;SDS011;9426;54.118;17.948;2022-12-29T19:34:53;6.80;;;3.40;;
18592;SDS011;9426;54.118;17.948;2022-12-29T19:40:17;11.63;;;4.47;;
18592;SDS011;9426;54.118;17.948;2022-12-29T19:45:43;9.47;;;4.67;;
18592;SDS011;9426;54.118;17.948;2022-12-29T19:51:09;11.67;;;4.27;;
18592;SDS011;9426;54.118;17.948;2022-12-29T19:56:35;7.03;;;3.30;;
18592;SDS011;9426;54.118;17.948;2022-12-29T20:02:03;7.93;;;3.73;;
18592;SDS011;9426;54.118;17.948;2022-12-29T20:07:28;8.90;;;3.70;;
18592;SDS011;9426;54.118;17.948;2022-12-29T20:12:52;7.23;;;3.63;;
18592;SDS011;9426;54.118;17.948;2022-12-29T20:18:15;8.27;;;4.60;;
18592;SDS011;9426;54.118;17.948;2022-12-29T20:23:42;8.73;;;3.47;;
18592;SDS011;9426;54.118;17.948;2022-12-29T20:29:07;10.03;;;4.97;;
18592;SDS011;9426;54.118;17.948;2022-12-29T20:34:30;6.97;;;3.50;;
18592;SDS011;9426;54.118;17.948;2022-12-29T20:39:55;11.90;;;5.63;;
18592;SDS011;9426;54.118;17.948;2022-12-29T20:45:19;7.77;;;4.00;;
18592;SDS011;9426;54.118;17.948;2022-12-29T20:50:43;5.70;;;3.43;;
18592;SDS011;9426;54.118;17.948;2022-12-29T20:56:10;6.73;;;3.93;;
18592;SDS011;9426;54.118;17.948;2022-12-29T21:01:36;8.83;;;4.40;;
18592;SDS011;9426;54.118;17.948;2022-12-29T21:07:00;12.80;;;5.03;;
18592;SDS011;9426;54.118;17.948;2022-12-29T21:12:26;9.77;;;5.17;;
18592;SDS011;9426;54.118;17.948;2022-12-29T21:17:50;8.40;;;5.03;;
18592;SDS011;9426;54.118;17.948;2022-12-29T21:23:13;10.73;;;4.50;;
18592;SDS011;9426;54.118;17.948;2022-12-29T21:28:39;9.73;;;4.53;;
18592;SDS011;9426;54.118;17.948;2022-12-29T21:34:04;9.63;;;4.43;;
18592;SDS011;9426;54.118;17.948;2022-12-29T21:39:28;8.07;;;3.77;;
18592;SDS011;9426;54.118;17.948;2022-12-29T21:44:53;7.40;;;3.90;;
18592;SDS011;9426;54.118;17.948;2022-12-29T21:50:37;7.53;;;3.77;;
18592;SDS011;9426;54.118;17.948;2022-12-29T21:56:21;9.30;;;3.40;;
18592;SDS011;9426;54.118;17.948;2022-12-29T22:01:48;7.93;;;2.67;;
18592;SDS011;9426;54.118;17.948;2022-12-29T22:07:29;6.67;;;2.60;;
18592;SDS011;9426;54.118;17.948;2022-12-29T22:13:10;4.63;;;2.57;;
18592;SDS011;9426;54.118;17.948;2022-12-29T22:18:37;7.37;;;2.23;;
18592;SDS011;9426;54.118;17.948;2022-12-29T22:24:01;5.53;;;2.87;;
18592;SDS011;9426;54.118;17.948;2022-12-29T22:29:25;4.50;;;2.60;;
18592;SDS011;9426;54.118;17.948;2022-12-29T22:34:50;6.90;;;3.23;;
18592;SDS011;9426;54.118;17.948;2022-12-29T22:40:14;6.03;;;2.47;;
18592;SDS011;9426;54.118;17.948;2022-12-29T22:45:38;5.67;;;2.67;;
18592;SDS011;9426;54.118;17.948;2022-12-29T22:51:04;9.17;;;3.40;;
18592;SDS011;9426;54.118;17.948;2022-12-29T22:56:28;4.10;;;2.20;;
18592;SDS011;9426;54.118;17.948;2022-12-29T23:01:51;4.87;;;2.40;;
18592;SDS011;9426;54.118;17.948;2022-12-29T23:07:17;6.67;;;2.53;;
18592;SDS011;9426;54.118;17.948;2022-12-29T23:12:40;6.13;;;3.17;;
18592;SDS011;9426;54.118;17.948;2022-12-29T23:18:04;4.73;;;2.37;;
18592;SDS011;9426;54.118;17.948;2022-12-29T23:23:29;6.63;;;2.87;;
18592;SDS011;9426;54.118;17.948;2022-12-29T23:29:11;6.60;;;2.50;;
18592;SDS011;9426;54.118;17.948;2022-12-29T23:34:36;9.93;;;3.53;;
18592;SDS011;9426;54.118;17.948;2022-12-29T23:40:01;8.37;;;4.13;;
18592;SDS011;9426;54.118;17.948;2022-12-29T23:45:24;7.20;;;2.50;;
18592;SDS011;9426;54.118;17.948;2022-12-29T23:50:48;7.60;;;3.10;;
18592;SDS011;9426;54.118;17.948;2022-12-29T23:56:14;6.90;;;2.60;;
